sensor_id;sensor_type;location;lat;lon;timestamp;P1;durP1;ratioP1;P2;durP2;ratioP2
12145;SDS011;6136;47.032;15.398;2022-10-31T00:01:16;10.43;;;5.83;;
12145;SDS011;6136;47.032;15.398;2022-10-31T00:03:46;7.87;;;6.00;;
12145;SDS011;6136;47.032;15.398;2022-10-31T00:06:15;14.23;;;5.57;;
12145;SDS011;6136;47.032;15.398;2022-10-31T00:08:44;8.53;;;5.80;;
12145;SDS011;6136;47.032;15.398;2022-10-31T00:11:14;11.67;;;6.13;;
12145;SDS011;6136;47.032;15.398;2022-10-31T00:13:42;11.87;;;6.17;;
12145;SDS011;6136;47.032;15.398;2022-10-31T00:16:14;12.27;;;5.83;;
12145;SDS011;6136;47.032;15.398;2022-10-31T00:18:42;16.83;;;7.73;;
12145;SDS011;6136;47.032;15.398;2022-10-31T00:21:11;13.60;;;7.10;;
12145;SDS011;6136;47.032;15.398;2022-10-31T00:23:40;16.67;;;7.53;;
12145;SDS011;6136;47.032;15.398;2022-10-31T00:26:08;21.13;;;8.00;;
12145;SDS011;6136;47.032;15.398;2022-10-31T00:28:38;10.50;;;6.47;;
12145;SDS011;6136;47.032;15.398;2022-10-31T00:31:07;18.40;;;7.23;;
12145;SDS011;6136;47.032;15.398;2022-10-31T00:33:37;17.10;;;7.23;;
12145;SDS011;6136;47.032;15.398;2022-10-31T00:36:07;16.33;;;8.43;;
12145;SDS011;6136;47.032;15.398;2022-10-31T00:38:39;15.83;;;8.47;;
12145;SDS011;6136;47.032;15.398;2022-10-31T00:41:07;18.70;;;7.20;;
12145;SDS011;6136;47.032;15.398;2022-10-31T00:43:40;17.33;;;7.63;;
12145;SDS011;6136;47.032;15.398;2022-10-31T00:46:09;14.13;;;6.63;;
12145;SDS011;6136;47.032;15.398;2022-10-31T00:48:37;14.73;;;7.43;;
12145;SDS011;6136;47.032;15.398;2022-10-31T00:51:06;15.77;;;8.10;;
12145;SDS011;6136;47.032;15.398;2022-10-31T00:53:34;11.67;;;7.37;;
12145;SDS011;6136;47.032;15.398;2022-10-31T00:56:03;12.83;;;7.47;;
12145;SDS011;6136;47.032;15.398;2022-10-31T00:58:31;16.67;;;7.93;;
12145;SDS011;6136;47.032;15.398;2022-10-31T01:01:02;12.20;;;7.57;;
12145;SDS011;6136;47.032;15.398;2022-10-31T01:03:30;18.40;;;8.40;;
12145;SDS011;6136;47.032;15.398;2022-10-31T01:06:01;11.47;;;6.37;;
12145;SDS011;6136;47.032;15.398;2022-10-31T01:08:32;21.33;;;7.50;;
12145;SDS011;6136;47.032;15.398;2022-10-31T01:11:01;13.07;;;7.33;;
12145;SDS011;6136;47.032;15.398;2022-10-31T01:13:31;13.77;;;8.30;;
12145;SDS011;6136;47.032;15.398;2022-10-31T01:16:02;21.63;;;8.63;;
12145;SDS011;6136;47.032;15.398;2022-10-31T01:18:32;25.13;;;9.77;;
12145;SDS011;6136;47.032;15.398;2022-10-31T01:21:02;17.57;;;8.93;;
12145;SDS011;6136;47.032;15.398;2022-10-31T01:23:32;23.87;;;9.87;;
12145;SDS011;6136;47.032;15.398;2022-10-31T01:26:02;17.77;;;9.30;;
12145;SDS011;6136;47.032;15.398;2022-10-31T01:28:32;14.70;;;8.50;;
12145;SDS011;6136;47.032;15.398;2022-10-31T01:31:02;21.33;;;9.33;;
12145;SDS011;6136;47.032;15.398;2022-10-31T01:33:41;17.23;;;8.07;;
12145;SDS011;6136;47.032;15.398;2022-10-31T01:36:14;16.63;;;9.67;;
12145;SDS011;6136;47.032;15.398;2022-10-31T01:38:50;20.60;;;9.57;;
12145;SDS011;6136;47.032;15.398;2022-10-31T01:41:20;20.73;;;8.80;;
12145;SDS011;6136;47.032;15.398;2022-10-31T01:43:50;24.20;;;9.57;;
12145;SDS011;6136;47.032;15.398;2022-10-31T01:46:22;20.10;;;9.23;;
12145;SDS011;6136;47.032;15.398;2022-10-31T01:48:53;16.77;;;8.63;;
12145;SDS011;6136;47.032;15.398;2022-10-31T01:51:23;19.80;;;9.43;;
12145;SDS011;6136;47.032;15.398;2022-10-31T01:53:58;21.73;;;9.87;;
12145;SDS011;6136;47.032;15.398;2022-10-31T01:56:31;23.53;;;9.80;;
12145;SDS011;6136;47.032;15.398;2022-10-31T01:59:04;22.73;;;9.57;;
12145;SDS011;6136;47.032;15.398;2022-10-31T02:01:37;25.53;;;10.00;;
12145;SDS011;6136;47.032;15.398;2022-10-31T02:04:06;18.50;;;10.20;;
12145;SDS011;6136;47.032;15.398;2022-10-31T02:06:35;23.80;;;10.40;;
12145;SDS011;6136;47.032;15.398;2022-10-31T02:09:10;24.57;;;8.97;;
12145;SDS011;6136;47.032;15.398;2022-10-31T02:11:41;18.13;;;9.70;;
12145;SDS011;6136;47.032;15.398;2022-10-31T02:14:11;25.70;;;9.83;;
12145;SDS011;6136;47.032;15.398;2022-10-31T02:16:42;15.60;;;9.67;;
12145;SDS011;6136;47.032;15.398;2022-10-31T02:19:11;17.10;;;9.03;;
12145;SDS011;6136;47.032;15.398;2022-10-31T02:21:48;15.50;;;8.53;;
12145;SDS011;6136;47.032;15.398;2022-10-31T02:24:44;15.23;;;8.80;;
12145;SDS011;6136;47.032;15.398;2022-10-31T02:30:21;17.80;;;8.93;;
12145;SDS011;6136;47.032;15.398;2022-10-31T02:32:57;15.33;;;8.93;;
12145;SDS011;6136;47.032;15.398;2022-10-31T02:35:41;15.93;;;8.50;;
12145;SDS011;6136;47.032;15.398;2022-10-31T02:38:21;13.93;;;9.67;;
12145;SDS011;6136;47.032;15.398;2022-10-31T02:41:01;14.13;;;8.93;;
12145;SDS011;6136;47.032;15.398;2022-10-31T02:43:44;12.20;;;8.00;;
12145;SDS011;6136;47.032;15.398;2022-10-31T02:46:24;14.50;;;9.33;;
12145;SDS011;6136;47.032;15.398;2022-10-31T02:49:00;15.30;;;8.87;;
12145;SDS011;6136;47.032;15.398;2022-10-31T02:51:33;13.53;;;9.40;;
12145;SDS011;6136;47.032;15.398;2022-10-31T02:54:03;18.30;;;9.23;;
12145;SDS011;6136;47.032;15.398;2022-10-31T02:56:31;18.23;;;9.80;;
12145;SDS011;6136;47.032;15.398;2022-10-31T02:58:59;14.07;;;9.10;;
12145;SDS011;6136;47.032;15.398;2022-10-31T03:01:33;18.63;;;9.50;;
12145;SDS011;6136;47.032;15.398;2022-10-31T03:04:21;14.03;;;8.70;;
12145;SDS011;6136;47.032;15.398;2022-10-31T03:07:10;13.70;;;8.27;;
12145;SDS011;6136;47.032;15.398;2022-10-31T03:09:50;17.83;;;9.23;;
12145;SDS011;6136;47.032;15.398;2022-10-31T03:12:25;15.33;;;8.57;;
12145;SDS011;6136;47.032;15.398;2022-10-31T03:14:58;17.33;;;8.53;;
12145;SDS011;6136;47.032;15.398;2022-10-31T03:17:36;11.27;;;8.00;;
12145;SDS011;6136;47.032;15.398;2022-10-31T03:20:11;13.93;;;8.80;;
12145;SDS011;6136;47.032;15.398;2022-10-31T03:22:40;13.63;;;8.83;;
12145;SDS011;6136;47.032;15.398;2022-10-31T03:25:13;11.17;;;8.20;;
12145;SDS011;6136;47.032;15.398;2022-10-31T03:27:41;9.93;;;8.70;;
12145;SDS011;6136;47.032;15.398;2022-10-31T03:30:20;12.80;;;9.63;;
12145;SDS011;6136;47.032;15.398;2022-10-31T03:32:56;18.17;;;9.77;;
12145;SDS011;6136;47.032;15.398;2022-10-31T03:35:30;12.53;;;10.30;;
12145;SDS011;6136;47.032;15.398;2022-10-31T03:38:01;11.83;;;9.27;;
12145;SDS011;6136;47.032;15.398;2022-10-31T03:40:33;10.87;;;8.83;;
12145;SDS011;6136;47.032;15.398;2022-10-31T03:43:05;10.97;;;8.50;;
12145;SDS011;6136;47.032;15.398;2022-10-31T03:45:39;9.93;;;7.77;;
12145;SDS011;6136;47.032;15.398;2022-10-31T03:48:11;9.60;;;7.67;;
12145;SDS011;6136;47.032;15.398;2022-10-31T03:50:43;9.73;;;8.40;;
12145;SDS011;6136;47.032;15.398;2022-10-31T03:53:19;9.57;;;8.57;;
12145;SDS011;6136;47.032;15.398;2022-10-31T03:55:53;11.63;;;7.80;;
12145;SDS011;6136;47.032;15.398;2022-10-31T03:58:27;9.93;;;7.20;;
12145;SDS011;6136;47.032;15.398;2022-10-31T04:01:00;8.47;;;7.37;;
12145;SDS011;6136;47.032;15.398;2022-10-31T04:03:32;8.63;;;7.67;;
12145;SDS011;6136;47.032;15.398;2022-10-31T04:06:07;8.03;;;7.20;;
12145;SDS011;6136;47.032;15.398;2022-10-31T04:08:40;7.63;;;6.67;;
12145;SDS011;6136;47.032;15.398;2022-10-31T04:11:15;8.30;;;7.20;;
12145;SDS011;6136;47.032;15.398;2022-10-31T04:13:59;9.03;;;6.60;;
12145;SDS011;6136;47.032;15.398;2022-10-31T04:16:30;8.40;;;7.50;;
12145;SDS011;6136;47.032;15.398;2022-10-31T04:18:58;9.30;;;7.37;;
12145;SDS011;6136;47.032;15.398;2022-10-31T04:21:28;8.43;;;7.23;;
12145;SDS011;6136;47.032;15.398;2022-10-31T04:23:57;10.10;;;7.30;;
12145;SDS011;6136;47.032;15.398;2022-10-31T04:26:29;11.07;;;7.20;;
12145;SDS011;6136;47.032;15.398;2022-10-31T04:28:57;7.40;;;6.47;;
12145;SDS011;6136;47.032;15.398;2022-10-31T04:31:26;9.37;;;7.20;;
12145;SDS011;6136;47.032;15.398;2022-10-31T04:33:54;9.83;;;7.27;;
12145;SDS011;6136;47.032;15.398;2022-10-31T04:36:22;11.87;;;7.27;;
12145;SDS011;6136;47.032;15.398;2022-10-31T04:38:53;10.40;;;7.23;;
12145;SDS011;6136;47.032;15.398;2022-10-31T04:41:38;10.43;;;7.30;;
12145;SDS011;6136;47.032;15.398;2022-10-31T04:44:13;8.10;;;6.93;;
12145;SDS011;6136;47.032;15.398;2022-10-31T04:46:42;9.57;;;6.77;;
12145;SDS011;6136;47.032;15.398;2022-10-31T04:49:10;8.30;;;6.50;;
12145;SDS011;6136;47.032;15.398;2022-10-31T04:51:39;8.33;;;6.47;;
12145;SDS011;6136;47.032;15.398;2022-10-31T04:54:09;9.37;;;6.80;;
12145;SDS011;6136;47.032;15.398;2022-10-31T04:56:40;12.37;;;7.70;;
12145;SDS011;6136;47.032;15.398;2022-10-31T04:59:14;11.73;;;6.30;;
12145;SDS011;6136;47.032;15.398;2022-10-31T05:01:52;9.93;;;7.53;;
12145;SDS011;6136;47.032;15.398;2022-10-31T05:04:40;10.13;;;7.60;;
12145;SDS011;6136;47.032;15.398;2022-10-31T05:07:09;9.60;;;7.57;;
12145;SDS011;6136;47.032;15.398;2022-10-31T05:09:38;11.23;;;7.43;;
12145;SDS011;6136;47.032;15.398;2022-10-31T05:12:06;10.83;;;7.27;;
12145;SDS011;6136;47.032;15.398;2022-10-31T05:14:53;10.63;;;7.43;;
12145;SDS011;6136;47.032;15.398;2022-10-31T05:17:56;13.13;;;9.27;;
12145;SDS011;6136;47.032;15.398;2022-10-31T05:20:57;12.03;;;7.67;;
12145;SDS011;6136;47.032;15.398;2022-10-31T05:23:32;10.17;;;8.27;;
12145;SDS011;6136;47.032;15.398;2022-10-31T05:26:02;8.87;;;7.43;;
12145;SDS011;6136;47.032;15.398;2022-10-31T05:28:32;11.50;;;7.17;;
12145;SDS011;6136;47.032;15.398;2022-10-31T05:31:01;12.97;;;7.90;;
12145;SDS011;6136;47.032;15.398;2022-10-31T05:33:30;7.93;;;7.10;;
12145;SDS011;6136;47.032;15.398;2022-10-31T05:36:17;10.57;;;7.50;;
12145;SDS011;6136;47.032;15.398;2022-10-31T05:38:53;10.27;;;7.37;;
12145;SDS011;6136;47.032;15.398;2022-10-31T05:41:31;12.10;;;7.37;;
12145;SDS011;6136;47.032;15.398;2022-10-31T05:44:12;12.70;;;7.70;;
12145;SDS011;6136;47.032;15.398;2022-10-31T05:46:53;11.97;;;8.23;;
12145;SDS011;6136;47.032;15.398;2022-10-31T05:49:43;13.73;;;8.73;;
12145;SDS011;6136;47.032;15.398;2022-10-31T05:52:32;12.90;;;8.37;;
12145;SDS011;6136;47.032;15.398;2022-10-31T05:55:08;14.40;;;8.37;;
12145;SDS011;6136;47.032;15.398;2022-10-31T05:57:42;9.73;;;7.80;;
12145;SDS011;6136;47.032;15.398;2022-10-31T06:00:11;13.00;;;8.83;;
12145;SDS011;6136;47.032;15.398;2022-10-31T06:02:46;12.67;;;7.90;;
12145;SDS011;6136;47.032;15.398;2022-10-31T06:05:23;8.47;;;7.23;;
12145;SDS011;6136;47.032;15.398;2022-10-31T06:07:51;10.60;;;8.27;;
12145;SDS011;6136;47.032;15.398;2022-10-31T06:10:21;10.60;;;8.07;;
12145;SDS011;6136;47.032;15.398;2022-10-31T06:12:54;8.90;;;7.23;;
12145;SDS011;6136;47.032;15.398;2022-10-31T06:15:54;9.57;;;7.40;;
12145;SDS011;6136;47.032;15.398;2022-10-31T06:18:27;13.70;;;8.30;;
12145;SDS011;6136;47.032;15.398;2022-10-31T06:20:56;9.23;;;7.57;;
12145;SDS011;6136;47.032;15.398;2022-10-31T06:23:24;8.77;;;7.40;;
12145;SDS011;6136;47.032;15.398;2022-10-31T06:26:10;10.30;;;6.73;;
12145;SDS011;6136;47.032;15.398;2022-10-31T06:28:40;8.33;;;7.07;;
12145;SDS011;6136;47.032;15.398;2022-10-31T06:31:16;8.63;;;6.80;;
12145;SDS011;6136;47.032;15.398;2022-10-31T06:33:45;10.27;;;6.93;;
12145;SDS011;6136;47.032;15.398;2022-10-31T06:36:13;9.37;;;7.07;;
12145;SDS011;6136;47.032;15.398;2022-10-31T06:38:42;7.30;;;6.30;;
12145;SDS011;6136;47.032;15.398;2022-10-31T06:41:11;8.13;;;6.73;;
12145;SDS011;6136;47.032;15.398;2022-10-31T06:43:48;11.57;;;6.83;;
12145;SDS011;6136;47.032;15.398;2022-10-31T06:46:30;8.07;;;6.03;;
12145;SDS011;6136;47.032;15.398;2022-10-31T06:49:13;7.43;;;6.10;;
12145;SDS011;6136;47.032;15.398;2022-10-31T06:51:49;7.87;;;6.27;;
12145;SDS011;6136;47.032;15.398;2022-10-31T06:54:17;7.03;;;6.20;;
12145;SDS011;6136;47.032;15.398;2022-10-31T06:56:46;6.57;;;5.23;;
12145;SDS011;6136;47.032;15.398;2022-10-31T06:59:16;5.33;;;4.83;;
12145;SDS011;6136;47.032;15.398;2022-10-31T07:02:08;6.23;;;5.50;;
12145;SDS011;6136;47.032;15.398;2022-10-31T07:04:38;5.93;;;5.37;;
12145;SDS011;6136;47.032;15.398;2022-10-31T07:07:07;8.00;;;5.43;;
12145;SDS011;6136;47.032;15.398;2022-10-31T07:09:37;5.83;;;5.07;;
12145;SDS011;6136;47.032;15.398;2022-10-31T07:12:06;7.27;;;5.30;;
12145;SDS011;6136;47.032;15.398;2022-10-31T07:14:39;12.20;;;7.10;;
12145;SDS011;6136;47.032;15.398;2022-10-31T07:17:07;12.30;;;7.60;;
12145;SDS011;6136;47.032;15.398;2022-10-31T07:19:39;7.57;;;6.10;;
12145;SDS011;6136;47.032;15.398;2022-10-31T07:22:08;12.13;;;8.33;;
12145;SDS011;6136;47.032;15.398;2022-10-31T07:24:38;15.93;;;8.77;;
12145;SDS011;6136;47.032;15.398;2022-10-31T07:27:13;15.40;;;8.00;;
12145;SDS011;6136;47.032;15.398;2022-10-31T07:29:45;16.03;;;7.57;;
12145;SDS011;6136;47.032;15.398;2022-10-31T07:32:14;9.83;;;7.10;;
12145;SDS011;6136;47.032;15.398;2022-10-31T07:34:50;12.00;;;6.50;;
12145;SDS011;6136;47.032;15.398;2022-10-31T07:37:27;10.13;;;7.43;;
12145;SDS011;6136;47.032;15.398;2022-10-31T07:39:57;10.73;;;7.03;;
12145;SDS011;6136;47.032;15.398;2022-10-31T07:42:25;7.57;;;6.03;;
12145;SDS011;6136;47.032;15.398;2022-10-31T07:44:54;7.83;;;5.53;;
12145;SDS011;6136;47.032;15.398;2022-10-31T07:48:01;9.07;;;5.73;;
12145;SDS011;6136;47.032;15.398;2022-10-31T07:51:02;8.97;;;5.97;;
12145;SDS011;6136;47.032;15.398;2022-10-31T07:53:49;5.73;;;4.97;;
12145;SDS011;6136;47.032;15.398;2022-10-31T07:56:23;11.03;;;5.67;;
12145;SDS011;6136;47.032;15.398;2022-10-31T07:58:52;6.27;;;5.20;;
12145;SDS011;6136;47.032;15.398;2022-10-31T08:01:21;6.53;;;5.00;;
12145;SDS011;6136;47.032;15.398;2022-10-31T08:04:09;20.90;;;5.80;;
12145;SDS011;6136;47.032;15.398;2022-10-31T08:07:00;11.07;;;5.57;;
12145;SDS011;6136;47.032;15.398;2022-10-31T08:09:34;6.10;;;4.57;;
12145;SDS011;6136;47.032;15.398;2022-10-31T08:12:13;9.03;;;5.43;;
12145;SDS011;6136;47.032;15.398;2022-10-31T08:14:42;6.73;;;4.77;;
12145;SDS011;6136;47.032;15.398;2022-10-31T08:17:12;9.87;;;5.37;;
12145;SDS011;6136;47.032;15.398;2022-10-31T08:19:49;6.60;;;5.13;;
12145;SDS011;6136;47.032;15.398;2022-10-31T08:22:20;8.10;;;5.20;;
12145;SDS011;6136;47.032;15.398;2022-10-31T08:24:49;8.95;;;5.57;;
12145;SDS011;6136;47.032;15.398;2022-10-31T08:27:17;8.73;;;6.15;;
12145;SDS011;6136;47.032;15.398;2022-10-31T08:29:45;7.90;;;5.05;;
12145;SDS011;6136;47.032;15.398;2022-10-31T08:32:15;11.77;;;5.60;;
12145;SDS011;6136;47.032;15.398;2022-10-31T08:35:02;9.70;;;5.55;;
12145;SDS011;6136;47.032;15.398;2022-10-31T08:37:51;11.20;;;4.90;;
12145;SDS011;6136;47.032;15.398;2022-10-31T08:40:24;8.07;;;5.57;;
12145;SDS011;6136;47.032;15.398;2022-10-31T08:42:57;9.43;;;5.70;;
12145;SDS011;6136;47.032;15.398;2022-10-31T08:45:27;9.00;;;5.63;;
12145;SDS011;6136;47.032;15.398;2022-10-31T08:48:01;9.70;;;5.30;;
12145;SDS011;6136;47.032;15.398;2022-10-31T08:50:32;12.38;;;5.50;;
12145;SDS011;6136;47.032;15.398;2022-10-31T08:53:02;8.77;;;5.55;;
12145;SDS011;6136;47.032;15.398;2022-10-31T08:55:33;9.00;;;5.25;;
12145;SDS011;6136;47.032;15.398;2022-10-31T08:58:23;9.02;;;4.95;;
12145;SDS011;6136;47.032;15.398;2022-10-31T09:00:58;12.68;;;5.70;;
12145;SDS011;6136;47.032;15.398;2022-10-31T09:03:29;10.88;;;5.57;;
12145;SDS011;6136;47.032;15.398;2022-10-31T09:05:59;11.73;;;5.47;;
12145;SDS011;6136;47.032;15.398;2022-10-31T09:08:29;8.93;;;5.05;;
12145;SDS011;6136;47.032;15.398;2022-10-31T09:11:00;7.97;;;5.50;;
12145;SDS011;6136;47.032;15.398;2022-10-31T09:13:49;7.45;;;4.28;;
12145;SDS011;6136;47.032;15.398;2022-10-31T09:16:36;8.07;;;4.88;;
12145;SDS011;6136;47.032;15.398;2022-10-31T09:19:09;10.23;;;5.15;;
12145;SDS011;6136;47.032;15.398;2022-10-31T09:21:37;8.98;;;5.00;;
12145;SDS011;6136;47.032;15.398;2022-10-31T09:24:06;9.52;;;4.93;;
12145;SDS011;6136;47.032;15.398;2022-10-31T09:26:37;7.10;;;4.72;;
12145;SDS011;6136;47.032;15.398;2022-10-31T09:29:18;9.80;;;5.07;;
12145;SDS011;6136;47.032;15.398;2022-10-31T09:31:52;8.40;;;5.03;;
12145;SDS011;6136;47.032;15.398;2022-10-31T09:34:33;7.97;;;4.50;;
12145;SDS011;6136;47.032;15.398;2022-10-31T09:37:04;11.95;;;4.63;;
12145;SDS011;6136;47.032;15.398;2022-10-31T09:39:34;6.80;;;4.55;;
12145;SDS011;6136;47.032;15.398;2022-10-31T09:42:23;8.23;;;4.78;;
12145;SDS011;6136;47.032;15.398;2022-10-31T09:45:18;8.13;;;4.55;;
12145;SDS011;6136;47.032;15.398;2022-10-31T09:47:54;6.45;;;4.60;;
12145;SDS011;6136;47.032;15.398;2022-10-31T09:50:31;10.43;;;4.88;;
12145;SDS011;6136;47.032;15.398;2022-10-31T09:53:37;9.32;;;4.95;;
12145;SDS011;6136;47.032;15.398;2022-10-31T09:56:10;7.38;;;4.57;;
12145;SDS011;6136;47.032;15.398;2022-10-31T09:58:42;11.15;;;4.82;;
12145;SDS011;6136;47.032;15.398;2022-10-31T10:01:17;7.65;;;4.97;;
12145;SDS011;6136;47.032;15.398;2022-10-31T10:03:57;11.13;;;4.63;;
12145;SDS011;6136;47.032;15.398;2022-10-31T10:06:49;12.60;;;4.60;;
12145;SDS011;6136;47.032;15.398;2022-10-31T10:09:42;5.82;;;4.70;;
12145;SDS011;6136;47.032;15.398;2022-10-31T10:12:35;12.10;;;5.32;;
12145;SDS011;6136;47.032;15.398;2022-10-31T10:15:31;7.75;;;4.65;;
12145;SDS011;6136;47.032;15.398;2022-10-31T10:18:18;7.07;;;4.85;;
12145;SDS011;6136;47.032;15.398;2022-10-31T10:21:00;10.82;;;5.28;;
12145;SDS011;6136;47.032;15.398;2022-10-31T10:23:40;9.10;;;5.15;;
12145;SDS011;6136;47.032;15.398;2022-10-31T10:26:19;13.57;;;5.97;;
12145;SDS011;6136;47.032;15.398;2022-10-31T10:28:49;13.05;;;5.85;;
12145;SDS011;6136;47.032;15.398;2022-10-31T10:31:24;7.22;;;4.93;;
12145;SDS011;6136;47.032;15.398;2022-10-31T10:34:01;11.23;;;5.00;;
12145;SDS011;6136;47.032;15.398;2022-10-31T10:36:36;11.10;;;4.40;;
12145;SDS011;6136;47.032;15.398;2022-10-31T10:39:11;8.25;;;4.60;;
12145;SDS011;6136;47.032;15.398;2022-10-31T10:41:45;6.63;;;4.28;;
12145;SDS011;6136;47.032;15.398;2022-10-31T10:44:29;8.23;;;4.53;;
12145;SDS011;6136;47.032;15.398;2022-10-31T10:47:15;9.32;;;5.15;;
12145;SDS011;6136;47.032;15.398;2022-10-31T10:50:00;9.63;;;4.93;;
12145;SDS011;6136;47.032;15.398;2022-10-31T10:52:35;6.30;;;4.35;;
12145;SDS011;6136;47.032;15.398;2022-10-31T10:55:18;11.50;;;4.78;;
12145;SDS011;6136;47.032;15.398;2022-10-31T10:57:57;8.95;;;4.80;;
12145;SDS011;6136;47.032;15.398;2022-10-31T11:00:30;6.88;;;4.57;;
12145;SDS011;6136;47.032;15.398;2022-10-31T11:02:59;8.32;;;4.55;;
12145;SDS011;6136;47.032;15.398;2022-10-31T11:05:30;9.45;;;4.43;;
12145;SDS011;6136;47.032;15.398;2022-10-31T11:08:03;6.78;;;4.00;;
12145;SDS011;6136;47.032;15.398;2022-10-31T11:10:33;9.40;;;4.25;;
12145;SDS011;6136;47.032;15.398;2022-10-31T11:13:04;8.65;;;4.90;;
12145;SDS011;6136;47.032;15.398;2022-10-31T11:15:53;7.00;;;3.92;;
12145;SDS011;6136;47.032;15.398;2022-10-31T11:18:25;6.95;;;4.53;;
12145;SDS011;6136;47.032;15.398;2022-10-31T11:20:57;7.43;;;4.05;;
12145;SDS011;6136;47.032;15.398;2022-10-31T11:23:27;6.85;;;4.68;;
12145;SDS011;6136;47.032;15.398;2022-10-31T11:25:58;9.00;;;4.50;;
12145;SDS011;6136;47.032;15.398;2022-10-31T11:28:29;8.63;;;4.60;;
12145;SDS011;6136;47.032;15.398;2022-10-31T11:31:04;8.48;;;4.28;;
12145;SDS011;6136;47.032;15.398;2022-10-31T11:33:35;10.73;;;4.38;;
12145;SDS011;6136;47.032;15.398;2022-10-31T11:36:13;11.85;;;4.70;;
12145;SDS011;6136;47.032;15.398;2022-10-31T11:38:44;6.20;;;3.83;;
12145;SDS011;6136;47.032;15.398;2022-10-31T11:41:14;7.57;;;4.53;;
12145;SDS011;6136;47.032;15.398;2022-10-31T11:43:46;7.15;;;4.63;;
12145;SDS011;6136;47.032;15.398;2022-10-31T11:46:19;9.27;;;4.90;;
12145;SDS011;6136;47.032;15.398;2022-10-31T11:48:50;10.68;;;4.00;;
12145;SDS011;6136;47.032;15.398;2022-10-31T11:51:22;11.00;;;4.03;;
12145;SDS011;6136;47.032;15.398;2022-10-31T11:53:53;10.35;;;4.50;;
12145;SDS011;6136;47.032;15.398;2022-10-31T11:56:36;17.80;;;4.72;;
12145;SDS011;6136;47.032;15.398;2022-10-31T11:59:13;6.40;;;4.22;;
12145;SDS011;6136;47.032;15.398;2022-10-31T12:01:46;8.55;;;4.05;;
12145;SDS011;6136;47.032;15.398;2022-10-31T12:04:16;11.75;;;5.20;;
12145;SDS011;6136;47.032;15.398;2022-10-31T12:06:45;5.65;;;4.07;;
12145;SDS011;6136;47.032;15.398;2022-10-31T12:09:19;9.55;;;4.88;;
12145;SDS011;6136;47.032;15.398;2022-10-31T12:11:54;7.40;;;4.20;;
12145;SDS011;6136;47.032;15.398;2022-10-31T12:14:35;8.27;;;4.70;;
12145;SDS011;6136;47.032;15.398;2022-10-31T12:17:13;10.73;;;4.57;;
12145;SDS011;6136;47.032;15.398;2022-10-31T12:19:46;11.57;;;4.78;;
12145;SDS011;6136;47.032;15.398;2022-10-31T12:22:23;7.38;;;4.20;;
12145;SDS011;6136;47.032;15.398;2022-10-31T12:25:05;7.57;;;4.18;;
12145;SDS011;6136;47.032;15.398;2022-10-31T12:27:50;6.30;;;3.92;;
12145;SDS011;6136;47.032;15.398;2022-10-31T12:30:48;6.90;;;4.47;;
12145;SDS011;6136;47.032;15.398;2022-10-31T12:33:34;8.63;;;3.92;;
12145;SDS011;6136;47.032;15.398;2022-10-31T12:36:15;6.85;;;4.07;;
12145;SDS011;6136;47.032;15.398;2022-10-31T12:39:00;6.00;;;4.20;;
12145;SDS011;6136;47.032;15.398;2022-10-31T12:41:43;9.30;;;4.30;;
12145;SDS011;6136;47.032;15.398;2022-10-31T12:44:20;9.20;;;4.75;;
12145;SDS011;6136;47.032;15.398;2022-10-31T12:47:02;5.63;;;4.00;;
12145;SDS011;6136;47.032;15.398;2022-10-31T12:49:51;6.22;;;4.13;;
12145;SDS011;6136;47.032;15.398;2022-10-31T12:52:34;7.45;;;4.25;;
12145;SDS011;6136;47.032;15.398;2022-10-31T12:55:24;5.93;;;5.00;;
12145;SDS011;6136;47.032;15.398;2022-10-31T12:58:03;8.40;;;4.32;;
12145;SDS011;6136;47.032;15.398;2022-10-31T13:00:40;7.38;;;4.82;;
12145;SDS011;6136;47.032;15.398;2022-10-31T13:03:17;5.65;;;4.30;;
12145;SDS011;6136;47.032;15.398;2022-10-31T13:05:51;9.32;;;4.45;;
12145;SDS011;6136;47.032;15.398;2022-10-31T13:08:26;10.43;;;4.80;;
12145;SDS011;6136;47.032;15.398;2022-10-31T13:11:04;5.10;;;4.60;;
12145;SDS011;6136;47.032;15.398;2022-10-31T13:13:38;7.97;;;4.45;;
12145;SDS011;6136;47.032;15.398;2022-10-31T13:16:13;4.78;;;4.13;;
12145;SDS011;6136;47.032;15.398;2022-10-31T13:18:44;5.55;;;4.72;;
12145;SDS011;6136;47.032;15.398;2022-10-31T13:21:18;6.55;;;3.72;;
12145;SDS011;6136;47.032;15.398;2022-10-31T13:23:49;7.43;;;4.00;;
12145;SDS011;6136;47.032;15.398;2022-10-31T13:26:20;4.65;;;4.13;;
12145;SDS011;6136;47.032;15.398;2022-10-31T13:29:02;6.30;;;4.13;;
12145;SDS011;6136;47.032;15.398;2022-10-31T13:31:50;5.22;;;3.90;;
12145;SDS011;6136;47.032;15.398;2022-10-31T13:34:20;7.38;;;4.25;;
12145;SDS011;6136;47.032;15.398;2022-10-31T13:36:58;4.43;;;4.03;;
12145;SDS011;6136;47.032;15.398;2022-10-31T13:39:34;8.75;;;4.38;;
12145;SDS011;6136;47.032;15.398;2022-10-31T13:42:31;6.03;;;4.45;;
12145;SDS011;6136;47.032;15.398;2022-10-31T13:45:14;6.70;;;3.97;;
12145;SDS011;6136;47.032;15.398;2022-10-31T13:47:55;5.40;;;4.05;;
12145;SDS011;6136;47.032;15.398;2022-10-31T13:50:29;7.18;;;4.63;;
12145;SDS011;6136;47.032;15.398;2022-10-31T13:53:11;8.98;;;4.50;;
12145;SDS011;6136;47.032;15.398;2022-10-31T13:55:41;6.43;;;4.47;;
12145;SDS011;6136;47.032;15.398;2022-10-31T13:58:21;6.70;;;4.13;;
12145;SDS011;6136;47.032;15.398;2022-10-31T14:01:04;4.72;;;4.32;;
12145;SDS011;6136;47.032;15.398;2022-10-31T14:03:43;6.53;;;4.30;;
12145;SDS011;6136;47.032;15.398;2022-10-31T14:06:37;5.43;;;4.35;;
12145;SDS011;6136;47.032;15.398;2022-10-31T14:09:22;5.55;;;4.60;;
12145;SDS011;6136;47.032;15.398;2022-10-31T14:11:54;5.18;;;4.05;;
12145;SDS011;6136;47.032;15.398;2022-10-31T14:14:25;9.20;;;4.68;;
12145;SDS011;6136;47.032;15.398;2022-10-31T14:16:59;5.00;;;4.50;;
12145;SDS011;6136;47.032;15.398;2022-10-31T14:19:29;4.68;;;3.83;;
12145;SDS011;6136;47.032;15.398;2022-10-31T14:21:57;6.47;;;4.88;;
12145;SDS011;6136;47.032;15.398;2022-10-31T14:24:36;11.05;;;4.22;;
12145;SDS011;6136;47.032;15.398;2022-10-31T14:30:17;6.20;;;4.60;;
12145;SDS011;6136;47.032;15.398;2022-10-31T14:32:49;8.93;;;4.35;;
12145;SDS011;6136;47.032;15.398;2022-10-31T14:35:23;4.82;;;4.43;;
12145;SDS011;6136;47.032;15.398;2022-10-31T14:38:00;6.25;;;4.32;;
12145;SDS011;6136;47.032;15.398;2022-10-31T14:40:40;4.85;;;3.95;;
12145;SDS011;6136;47.032;15.398;2022-10-31T14:43:30;5.55;;;4.70;;
12145;SDS011;6136;47.032;15.398;2022-10-31T14:46:10;8.02;;;4.63;;
12145;SDS011;6136;47.032;15.398;2022-10-31T14:48:51;9.80;;;4.60;;
12145;SDS011;6136;47.032;15.398;2022-10-31T14:51:36;8.65;;;4.55;;
12145;SDS011;6136;47.032;15.398;2022-10-31T14:54:09;8.93;;;4.40;;
12145;SDS011;6136;47.032;15.398;2022-10-31T14:56:46;7.20;;;4.63;;
12145;SDS011;6136;47.032;15.398;2022-10-31T14:59:18;5.30;;;4.20;;
12145;SDS011;6136;47.032;15.398;2022-10-31T15:01:53;6.35;;;4.30;;
12145;SDS011;6136;47.032;15.398;2022-10-31T15:04:25;6.78;;;4.70;;
12145;SDS011;6136;47.032;15.398;2022-10-31T15:06:57;12.20;;;5.40;;
12145;SDS011;6136;47.032;15.398;2022-10-31T15:09:30;7.97;;;5.18;;
12145;SDS011;6136;47.032;15.398;2022-10-31T15:12:16;6.07;;;4.85;;
12145;SDS011;6136;47.032;15.398;2022-10-31T15:14:51;5.97;;;5.38;;
12145;SDS011;6136;47.032;15.398;2022-10-31T15:17:20;7.50;;;5.53;;
12145;SDS011;6136;47.032;15.398;2022-10-31T15:19:49;7.13;;;5.47;;
12145;SDS011;6136;47.032;15.398;2022-10-31T15:22:21;10.70;;;6.03;;
12145;SDS011;6136;47.032;15.398;2022-10-31T15:24:51;7.80;;;5.53;;
12145;SDS011;6136;47.032;15.398;2022-10-31T15:27:23;7.93;;;6.25;;
12145;SDS011;6136;47.032;15.398;2022-10-31T15:29:52;7.77;;;6.07;;
12145;SDS011;6136;47.032;15.398;2022-10-31T15:32:22;11.10;;;7.37;;
12145;SDS011;6136;47.032;15.398;2022-10-31T15:34:52;12.60;;;7.00;;